sensor_id;sensor_type;location;lat;lon;timestamp;temperature;humidity
2751;DHT22;1383;48.362;10.908;2023-04-28T00:00:05;10.90;55.10
2751;DHT22;1383;48.362;10.908;2023-04-28T00:02:33;10.80;55.00
2751;DHT22;1383;48.362;10.908;2023-04-28T00:05:00;10.90;55.60
2751;DHT22;1383;48.362;10.908;2023-04-28T00:07:27;10.80;55.60
2751;DHT22;1383;48.362;10.908;2023-04-28T00:09:54;10.90;55.60
2751;DHT22;1383;48.362;10.908;2023-04-28T00:12:22;10.90;55.80
2751;DHT22;1383;48.362;10.908;2023-04-28T00:14:49;10.90;55.60
2751;DHT22;1383;48.362;10.908;2023-04-28T00:17:16;10.90;56.00
2751;DHT22;1383;48.362;10.908;2023-04-28T00:19:43;10.90;56.00
2751;DHT22;1383;48.362;10.908;2023-04-28T00:22:11;10.90;55.80
2751;DHT22;1383;48.362;10.908;2023-04-28T00:24:38;10.90;56.10
2751;DHT22;1383;48.362;10.908;2023-04-28T00:27:07;10.90;56.20
2751;DHT22;1383;48.362;10.908;2023-04-28T00:29:34;11.00;55.80
2751;DHT22;1383;48.362;10.908;2023-04-28T00:32:01;11.00;55.60
2751;DHT22;1383;48.362;10.908;2023-04-28T00:34:31;10.90;55.90
2751;DHT22;1383;48.362;10.908;2023-04-28T00:36:58;11.00;56.40
2751;DHT22;1383;48.362;10.908;2023-04-28T00:39:25;11.00;56.20
2751;DHT22;1383;48.362;10.908;2023-04-28T00:41:53;10.90;56.30
2751;DHT22;1383;48.362;10.908;2023-04-28T00:44:20;10.80;56.80
2751;DHT22;1383;48.362;10.908;2023-04-28T00:46:46;10.90;57.10
2751;DHT22;1383;48.362;10.908;2023-04-28T00:49:16;10.90;57.50
2751;DHT22;1383;48.362;10.908;2023-04-28T00:51:43;10.90;57.50
2751;DHT22;1383;48.362;10.908;2023-04-28T00:54:12;10.90;57.20
2751;DHT22;1383;48.362;10.908;2023-04-28T00:56:41;10.90;57.10
2751;DHT22;1383;48.362;10.908;2023-04-28T00:59:09;10.90;57.10
2751;DHT22;1383;48.362;10.908;2023-04-28T01:01:36;10.90;56.90
2751;DHT22;1383;48.362;10.908;2023-04-28T01:04:03;10.90;57.10
2751;DHT22;1383;48.362;10.908;2023-04-28T01:06:31;10.80;57.00
2751;DHT22;1383;48.362;10.908;2023-04-28T01:08:58;10.80;57.00
2751;DHT22;1383;48.362;10.908;2023-04-28T01:11:25;10.70;57.10
2751;DHT22;1383;48.362;10.908;2023-04-28T01:13:52;10.70;58.00
2751;DHT22;1383;48.362;10.908;2023-04-28T01:16:19;10.70;58.20
2751;DHT22;1383;48.362;10.908;2023-04-28T01:18:46;10.70;58.30
2751;DHT22;1383;48.362;10.908;2023-04-28T01:21:13;10.70;58.40
2751;DHT22;1383;48.362;10.908;2023-04-28T01:23:44;10.80;58.40
2751;DHT22;1383;48.362;10.908;2023-04-28T01:26:11;10.80;58.40
2751;DHT22;1383;48.362;10.908;2023-04-28T01:28:38;10.80;58.30
2751;DHT22;1383;48.362;10.908;2023-04-28T01:31:05;10.80;58.10
2751;DHT22;1383;48.362;10.908;2023-04-28T01:33:31;10.80;58.40
2751;DHT22;1383;48.362;10.908;2023-04-28T01:35:58;10.80;58.60
2751;DHT22;1383;48.362;10.908;2023-04-28T01:38:25;10.90;58.40
2751;DHT22;1383;48.362;10.908;2023-04-28T01:40:54;10.80;58.30
2751;DHT22;1383;48.362;10.908;2023-04-28T01:43:21;10.80;58.60
2751;DHT22;1383;48.362;10.908;2023-04-28T01:45:47;10.80;58.80
2751;DHT22;1383;48.362;10.908;2023-04-28T01:48:14;10.80;59.10
2751;DHT22;1383;48.362;10.908;2023-04-28T01:50:48;10.90;59.10
2751;DHT22;1383;48.362;10.908;2023-04-28T01:53:15;10.80;58.50
2751;DHT22;1383;48.362;10.908;2023-04-28T01:55:46;10.80;59.20
2751;DHT22;1383;48.362;10.908;2023-04-28T01:58:13;10.70;59.30
2751;DHT22;1383;48.362;10.908;2023-04-28T02:00:40;10.80;59.80
2751;DHT22;1383;48.362;10.908;2023-04-28T02:03:06;10.90;59.40
2751;DHT22;1383;48.362;10.908;2023-04-28T02:05:33;10.90;59.40
2751;DHT22;1383;48.362;10.908;2023-04-28T02:08:00;10.90;59.30
2751;DHT22;1383;48.362;10.908;2023-04-28T02:10:27;10.90;59.20
2751;DHT22;1383;48.362;10.908;2023-04-28T02:12:54;10.80;60.30
2751;DHT22;1383;48.362;10.908;2023-04-28T02:15:21;10.60;61.10
2751;DHT22;1383;48.362;10.908;2023-04-28T02:17:47;10.60;61.90
2751;DHT22;1383;48.362;10.908;2023-04-28T02:20:15;10.60;61.80
2751;DHT22;1383;48.362;10.908;2023-04-28T02:22:42;10.40;62.10
2751;DHT22;1383;48.362;10.908;2023-04-28T02:25:08;10.30;63.80
2751;DHT22;1383;48.362;10.908;2023-04-28T02:27:35;10.30;64.30
2751;DHT22;1383;48.362;10.908;2023-04-28T02:30:03;10.50;64.60
2751;DHT22;1383;48.362;10.908;2023-04-28T02:32:31;10.60;64.00
2751;DHT22;1383;48.362;10.908;2023-04-28T02:34:58;10.70;63.30
2751;DHT22;1383;48.362;10.908;2023-04-28T02:37:25;10.80;63.00
2751;DHT22;1383;48.362;10.908;2023-04-28T02:39:51;11.00;62.10
2751;DHT22;1383;48.362;10.908;2023-04-28T02:42:19;11.10;61.60
2751;DHT22;1383;48.362;10.908;2023-04-28T02:44:45;11.00;61.50
2751;DHT22;1383;48.362;10.908;2023-04-28T02:47:12;11.00;61.60
2751;DHT22;1383;48.362;10.908;2023-04-28T02:49:39;11.00;61.70
2751;DHT22;1383;48.362;10.908;2023-04-28T02:52:06;11.00;62.30
2751;DHT22;1383;48.362;10.908;2023-04-28T02:54:32;11.00;62.90
2751;DHT22;1383;48.362;10.908;2023-04-28T02:57:02;11.10;62.90
2751;DHT22;1383;48.362;10.908;2023-04-28T02:59:30;11.20;62.90
2751;DHT22;1383;48.362;10.908;2023-04-28T03:01:57;11.20;62.60
2751;DHT22;1383;48.362;10.908;2023-04-28T03:04:23;11.10;63.00
2751;DHT22;1383;48.362;10.908;2023-04-28T03:06:52;11.10;63.70
2751;DHT22;1383;48.362;10.908;2023-04-28T03:09:18;11.00;66.20
2751;DHT22;1383;48.362;10.908;2023-04-28T03:11:45;10.90;67.50
2751;DHT22;1383;48.362;10.908;2023-04-28T03:14:12;11.00;67.80
2751;DHT22;1383;48.362;10.908;2023-04-28T03:16:39;11.10;67.40
2751;DHT22;1383;48.362;10.908;2023-04-28T03:19:06;11.10;66.20
2751;DHT22;1383;48.362;10.908;2023-04-28T03:21:32;11.10;66.20
2751;DHT22;1383;48.362;10.908;2023-04-28T03:23:59;11.10;67.60
2751;DHT22;1383;48.362;10.908;2023-04-28T03:26:28;11.20;68.60
2751;DHT22;1383;48.362;10.908;2023-04-28T03:28:55;11.30;68.60
2751;DHT22;1383;48.362;10.908;2023-04-28T03:31:22;11.30;69.50
2751;DHT22;1383;48.362;10.908;2023-04-28T03:33:49;11.20;70.80
2751;DHT22;1383;48.362;10.908;2023-04-28T03:36:16;11.00;71.40
2751;DHT22;1383;48.362;10.908;2023-04-28T03:38:43;10.90;74.50
2751;DHT22;1383;48.362;10.908;2023-04-28T03:41:10;11.00;75.80
2751;DHT22;1383;48.362;10.908;2023-04-28T03:43:36;11.10;76.10
2751;DHT22;1383;48.362;10.908;2023-04-28T03:46:03;10.90;75.30
2751;DHT22;1383;48.362;10.908;2023-04-28T03:48:30;10.70;77.50
2751;DHT22;1383;48.362;10.908;2023-04-28T03:50:57;10.50;81.30
2751;DHT22;1383;48.362;10.908;2023-04-28T03:53:24;10.50;83.30
2751;DHT22;1383;48.362;10.908;2023-04-28T03:55:51;10.50;84.30
2751;DHT22;1383;48.362;10.908;2023-04-28T03:58:17;10.60;84.00
2751;DHT22;1383;48.362;10.908;2023-04-28T04:00:44;10.60;84.00
2751;DHT22;1383;48.362;10.908;2023-04-28T04:03:11;10.60;83.20
2751;DHT22;1383;48.362;10.908;2023-04-28T04:05:39;10.60;82.20
2751;DHT22;1383;48.362;10.908;2023-04-28T04:08:07;10.70;83.30
2751;DHT22;1383;48.362;10.908;2023-04-28T04:10:33;10.60;82.90
2751;DHT22;1383;48.362;10.908;2023-04-28T04:13:00;10.60;82.70
2751;DHT22;1383;48.362;10.908;2023-04-28T04:15:27;10.50;82.20
2751;DHT22;1383;48.362;10.908;2023-04-28T04:17:54;10.60;83.40
2751;DHT22;1383;48.362;10.908;2023-04-28T04:20:21;10.50;83.30
2751;DHT22;1383;48.362;10.908;2023-04-28T04:22:48;10.50;84.10
2751;DHT22;1383;48.362;10.908;2023-04-28T04:25:14;10.60;85.20
2751;DHT22;1383;48.362;10.908;2023-04-28T04:27:42;10.70;85.80
2751;DHT22;1383;48.362;10.908;2023-04-28T04:30:09;10.90;84.70
2751;DHT22;1383;48.362;10.908;2023-04-28T04:32:36;11.00;82.90
2751;DHT22;1383;48.362;10.908;2023-04-28T04:35:03;10.90;82.30
2751;DHT22;1383;48.362;10.908;2023-04-28T04:37:30;10.90;82.30
2751;DHT22;1383;48.362;10.908;2023-04-28T04:39:57;10.90;82.70
2751;DHT22;1383;48.362;10.908;2023-04-28T04:42:23;10.80;82.50
2751;DHT22;1383;48.362;10.908;2023-04-28T04:44:51;10.90;83.70
2751;DHT22;1383;48.362;10.908;2023-04-28T04:47:18;10.90;82.40
2751;DHT22;1383;48.362;10.908;2023-04-28T04:49:45;10.80;83.00
2751;DHT22;1383;48.362;10.908;2023-04-28T04:52:12;10.90;82.60
2751;DHT22;1383;48.362;10.908;2023-04-28T04:54:39;10.70;82.30
2751;DHT22;1383;48.362;10.908;2023-04-28T04:57:06;10.80;84.20
2751;DHT22;1383;48.362;10.908;2023-04-28T04:59:33;10.80;83.90
2751;DHT22;1383;48.362;10.908;2023-04-28T05:02:00;10.90;84.70
2751;DHT22;1383;48.362;10.908;2023-04-28T05:04:26;10.90;83.20
2751;DHT22;1383;48.362;10.908;2023-04-28T05:06:54;10.90;83.40
2751;DHT22;1383;48.362;10.908;2023-04-28T05:09:21;10.90;84.30
2751;DHT22;1383;48.362;10.908;2023-04-28T05:11:48;10.90;84.40
2751;DHT22;1383;48.362;10.908;2023-04-28T05:14:15;11.00;83.60
2751;DHT22;1383;48.362;10.908;2023-04-28T05:16:43;11.00;82.90
2751;DHT22;1383;48.362;10.908;2023-04-28T05:19:10;11.00;82.20
2751;DHT22;1383;48.362;10.908;2023-04-28T05:21:37;11.10;81.70
2751;DHT22;1383;48.362;10.908;2023-04-28T05:24:04;11.30;81.70
2751;DHT22;1383;48.362;10.908;2023-04-28T05:26:32;11.20;80.40
2751;DHT22;1383;48.362;10.908;2023-04-28T05:28:59;11.10;80.60
2751;DHT22;1383;48.362;10.908;2023-04-28T05:31:25;11.10;80.50
2751;DHT22;1383;48.362;10.908;2023-04-28T05:33:52;11.00;81.50
2751;DHT22;1383;48.362;10.908;2023-04-28T05:36:19;11.10;82.10
2751;DHT22;1383;48.362;10.908;2023-04-28T05:38:46;11.10;81.90
2751;DHT22;1383;48.362;10.908;2023-04-28T05:41:13;11.00;81.70
2751;DHT22;1383;48.362;10.908;2023-04-28T05:43:39;11.00;82.90
2751;DHT22;1383;48.362;10.908;2023-04-28T05:46:06;11.00;83.70
2751;DHT22;1383;48.362;10.908;2023-04-28T05:48:53;10.90;84.20
2751;DHT22;1383;48.362;10.908;2023-04-28T05:51:20;11.00;84.60
2751;DHT22;1383;48.362;10.908;2023-04-28T05:53:48;11.00;84.90
2751;DHT22;1383;48.362;10.908;2023-04-28T05:56:15;11.10;86.20
2751;DHT22;1383;48.362;10.908;2023-04-28T05:58:42;11.10;86.10
2751;DHT22;1383;48.362;10.908;2023-04-28T06:01:13;11.10;86.70
2751;DHT22;1383;48.362;10.908;2023-04-28T06:03:40;11.30;86.80
2751;DHT22;1383;48.362;10.908;2023-04-28T06:06:08;11.40;87.30
2751;DHT22;1383;48.362;10.908;2023-04-28T06:08:36;11.50;86.90
2751;DHT22;1383;48.362;10.908;2023-04-28T06:11:04;11.60;86.90
2751;DHT22;1383;48.362;10.908;2023-04-28T06:13:30;11.70;86.90
2751;DHT22;1383;48.362;10.908;2023-04-28T06:15:58;11.80;86.60
2751;DHT22;1383;48.362;10.908;2023-04-28T06:18:24;11.90;86.80
2751;DHT22;1383;48.362;10.908;2023-04-28T06:20:52;12.00;84.10
2751;DHT22;1383;48.362;10.908;2023-04-28T06:23:19;12.00;82.90
2751;DHT22;1383;48.362;10.908;2023-04-28T06:25:46;12.00;82.80
2751;DHT22;1383;48.362;10.908;2023-04-28T06:28:13;12.20;82.40
2751;DHT22;1383;48.362;10.908;2023-04-28T06:30:40;12.30;82.00
2751;DHT22;1383;48.362;10.908;2023-04-28T06:33:07;12.30;81.80
2751;DHT22;1383;48.362;10.908;2023-04-28T06:35:34;12.40;82.40
2751;DHT22;1383;48.362;10.908;2023-04-28T06:38:05;12.50;82.50
2751;DHT22;1383;48.362;10.908;2023-04-28T06:40:32;12.50;83.20
2751;DHT22;1383;48.362;10.908;2023-04-28T06:42:59;12.50;83.20
2751;DHT22;1383;48.362;10.908;2023-04-28T06:45:25;12.60;83.40
2751;DHT22;1383;48.362;10.908;2023-04-28T06:47:53;12.60;83.80
2751;DHT22;1383;48.362;10.908;2023-04-28T06:50:22;12.60;83.20
2751;DHT22;1383;48.362;10.908;2023-04-28T06:52:49;12.70;83.10
2751;DHT22;1383;48.362;10.908;2023-04-28T06:55:16;12.80;82.20
2751;DHT22;1383;48.362;10.908;2023-04-28T06:57:43;13.00;82.10
2751;DHT22;1383;48.362;10.908;2023-04-28T07:00:11;13.10;81.50
2751;DHT22;1383;48.362;10.908;2023-04-28T07:02:38;13.20;80.10
2751;DHT22;1383;48.362;10.908;2023-04-28T07:05:05;13.30;79.10
2751;DHT22;1383;48.362;10.908;2023-04-28T07:07:32;13.40;78.60
2751;DHT22;1383;48.362;10.908;2023-04-28T07:09:59;13.40;78.20
2751;DHT22;1383;48.362;10.908;2023-04-28T07:12:26;13.50;78.00
2751;DHT22;1383;48.362;10.908;2023-04-28T07:14:53;13.40;78.00
2751;DHT22;1383;48.362;10.908;2023-04-28T07:17:21;13.50;77.30
2751;DHT22;1383;48.362;10.908;2023-04-28T07:19:48;13.40;77.60
2751;DHT22;1383;48.362;10.908;2023-04-28T07:22:16;13.40;78.60
2751;DHT22;1383;48.362;10.908;2023-04-28T07:24:43;13.30;79.50
2751;DHT22;1383;48.362;10.908;2023-04-28T07:27:10;13.30;80.20
2751;DHT22;1383;48.362;10.908;2023-04-28T07:29:37;13.30;81.50
2751;DHT22;1383;48.362;10.908;2023-04-28T07:32:04;13.10;82.50
2751;DHT22;1383;48.362;10.908;2023-04-28T07:34:34;12.90;85.10
2751;DHT22;1383;48.362;10.908;2023-04-28T07:37:02;12.80;87.30
2751;DHT22;1383;48.362;10.908;2023-04-28T07:39:32;12.80;90.30
2751;DHT22;1383;48.362;10.908;2023-04-28T07:42:01;12.80;91.30
2751;DHT22;1383;48.362;10.908;2023-04-28T07:44:29;12.80;91.20
2751;DHT22;1383;48.362;10.908;2023-04-28T07:46:56;12.80;91.60
2751;DHT22;1383;48.362;10.908;2023-04-28T07:49:23;12.90;91.90
2751;DHT22;1383;48.362;10.908;2023-04-28T07:51:49;12.90;91.70
2751;DHT22;1383;48.362;10.908;2023-04-28T07:54:19;12.90;91.80
2751;DHT22;1383;48.362;10.908;2023-04-28T07:56:46;12.80;91.90
2751;DHT22;1383;48.362;10.908;2023-04-28T07:59:13;12.80;91.50
2751;DHT22;1383;48.362;10.908;2023-04-28T08:01:40;12.80;90.20
2751;DHT22;1383;48.362;10.908;2023-04-28T08:04:08;12.80;90.50
2751;DHT22;1383;48.362;10.908;2023-04-28T08:06:37;12.90;90.80
2751;DHT22;1383;48.362;10.908;2023-04-28T08:09:04;12.90;90.40
2751;DHT22;1383;48.362;10.908;2023-04-28T08:11:31;12.80;90.50
2751;DHT22;1383;48.362;10.908;2023-04-28T08:13:59;12.80;90.80
2751;DHT22;1383;48.362;10.908;2023-04-28T08:16:29;12.90;90.90
2751;DHT22;1383;48.362;10.908;2023-04-28T08:18:57;12.90;91.00
2751;DHT22;1383;48.362;10.908;2023-04-28T08:21:25;12.90;91.20
2751;DHT22;1383;48.362;10.908;2023-04-28T08:23:52;12.80;92.00
2751;DHT22;1383;48.362;10.908;2023-04-28T08:26:19;12.90;91.80
2751;DHT22;1383;48.362;10.908;2023-04-28T08:28:46;13.00;92.00
2751;DHT22;1383;48.362;10.908;2023-04-28T08:31:13;13.10;91.80
2751;DHT22;1383;48.362;10.908;2023-04-28T08:33:40;13.20;91.30
2751;DHT22;1383;48.362;10.908;2023-04-28T08:36:10;13.40;91.00
2751;DHT22;1383;48.362;10.908;2023-04-28T08:38:40;13.50;90.10
2751;DHT22;1383;48.362;10.908;2023-04-28T08:41:08;13.60;89.10
2751;DHT22;1383;48.362;10.908;2023-04-28T08:43:35;13.70;88.20
2751;DHT22;1383;48.362;10.908;2023-04-28T08:46:05;13.80;86.80
2751;DHT22;1383;48.362;10.908;2023-04-28T08:48:43;13.70;84.40
2751;DHT22;1383;48.362;10.908;2023-04-28T08:51:24;13.70;84.80
2751;DHT22;1383;48.362;10.908;2023-04-28T08:53:53;13.70;85.30
2751;DHT22;1383;48.362;10.908;2023-04-28T08:56:26;13.90;86.40
2751;DHT22;1383;48.362;10.908;2023-04-28T08:59:02;13.90;84.70
2751;DHT22;1383;48.362;10.908;2023-04-28T09:01:32;14.00;85.50
2751;DHT22;1383;48.362;10.908;2023-04-28T09:04:00;14.10;83.40
2751;DHT22;1383;48.362;10.908;2023-04-28T09:06:34;14.00;80.50
2751;DHT22;1383;48.362;10.908;2023-04-28T09:09:23;14.00;79.70
2751;DHT22;1383;48.362;10.908;2023-04-28T09:11:54;14.00;79.20
2751;DHT22;1383;48.362;10.908;2023-04-28T09:14:22;14.00;80.10
2751;DHT22;1383;48.362;10.908;2023-04-28T09:16:49;14.00;81.00
2751;DHT22;1383;48.362;10.908;2023-04-28T09:19:19;14.10;81.30
2751;DHT22;1383;48.362;10.908;2023-04-28T09:21:54;14.10;82.30
2751;DHT22;1383;48.362;10.908;2023-04-28T09:24:37;14.20;82.40
2751;DHT22;1383;48.362;10.908;2023-04-28T09:27:07;14.10;82.80
2751;DHT22;1383;48.362;10.908;2023-04-28T09:29:37;14.10;83.80
2751;DHT22;1383;48.362;10.908;2023-04-28T09:32:16;14.10;84.30
2751;DHT22;1383;48.362;10.908;2023-04-28T09:34:44;13.90;84.80
2751;DHT22;1383;48.362;10.908;2023-04-28T09:37:25;13.80;87.80
2751;DHT22;1383;48.362;10.908;2023-04-28T09:39:54;13.60;90.30
2751;DHT22;1383;48.362;10.908;2023-04-28T09:42:35;13.50;91.30
2751;DHT22;1383;48.362;10.908;2023-04-28T09:45:12;13.40;92.30
2751;DHT22;1383;48.362;10.908;2023-04-28T09:47:41;13.50;93.50
2751;DHT22;1383;48.362;10.908;2023-04-28T09:50:10;13.50;93.80
2751;DHT22;1383;48.362;10.908;2023-04-28T09:52:41;13.50;94.00
2751;DHT22;1383;48.362;10.908;2023-04-28T09:55:10;13.40;94.70
2751;DHT22;1383;48.362;10.908;2023-04-28T09:57:38;13.40;94.90
2751;DHT22;1383;48.362;10.908;2023-04-28T10:00:07;13.40;95.60
2751;DHT22;1383;48.362;10.908;2023-04-28T10:02:36;13.40;95.90
2751;DHT22;1383;48.362;10.908;2023-04-28T10:05:07;13.40;96.30
2751;DHT22;1383;48.362;10.908;2023-04-28T10:07:36;13.40;96.10
2751;DHT22;1383;48.362;10.908;2023-04-28T10:10:03;13.40;96.60
2751;DHT22;1383;48.362;10.908;2023-04-28T10:12:31;13.40;96.70
2751;DHT22;1383;48.362;10.908;2023-04-28T10:14:59;13.50;97.10
2751;DHT22;1383;48.362;10.908;2023-04-28T10:17:27;13.50;97.30
2751;DHT22;1383;48.362;10.908;2023-04-28T10:19:55;13.40;97.10
2751;DHT22;1383;48.362;10.908;2023-04-28T10:25:35;13.50;97.60
2751;DHT22;1383;48.362;10.908;2023-04-28T10:28:06;13.60;98.00
2751;DHT22;1383;48.362;10.908;2023-04-28T10:30:34;13.60;97.60
2751;DHT22;1383;48.362;10.908;2023-04-28T10:35:42;13.70;97.70
2751;DHT22;1383;48.362;10.908;2023-04-28T10:38:18;13.70;96.60
2751;DHT22;1383;48.362;10.908;2023-04-28T10:40:50;13.60;96.90
2751;DHT22;1383;48.362;10.908;2023-04-28T10:56:22;13.60;97.70
2751;DHT22;1383;48.362;10.908;2023-04-28T10:58:56;13.60;97.70
2751;DHT22;1383;48.362;10.908;2023-04-28T11:01:28;13.50;98.00
2751;DHT22;1383;48.362;10.908;2023-04-28T11:03:56;13.50;98.10
2751;DHT22;1383;48.362;10.908;2023-04-28T11:14:30;13.50;99.60
2751;DHT22;1383;48.362;10.908;2023-04-28T11:16:59;13.60;99.90
2751;DHT22;1383;48.362;10.908;2023-04-28T11:19:29;13.70;99.90
2751;DHT22;1383;48.362;10.908;2023-04-28T11:21:57;13.60;99.90
2751;DHT22;1383;48.362;10.908;2023-04-28T11:24:26;13.70;99.90
2751;DHT22;1383;48.362;10.908;2023-04-28T11:26:55;13.70;99.90
2751;DHT22;1383;48.362;10.908;2023-04-28T11:29:37;13.80;99.90
2751;DHT22;1383;48.362;10.908;2023-04-28T11:32:08;13.90;99.90
2751;DHT22;1383;48.362;10.908;2023-04-28T11:34:36;14.10;99.90
2751;DHT22;1383;48.362;10.908;2023-04-28T11:37:03;14.40;99.90
2751;DHT22;1383;48.362;10.908;2023-04-28T11:39:34;14.60;99.90
2751;DHT22;1383;48.362;10.908;2023-04-28T11:42:09;14.80;99.30
2751;DHT22;1383;48.362;10.908;2023-04-28T11:44:36;14.90;96.90
2751;DHT22;1383;48.362;10.908;2023-04-28T11:47:04;14.80;96.10
2751;DHT22;1383;48.362;10.908;2023-04-28T11:49:44;14.90;96.30
2751;DHT22;1383;48.362;10.908;2023-04-28T11:52:11;15.00;95.90
2751;DHT22;1383;48.362;10.908;2023-04-28T11:54:39;15.10;95.60
2751;DHT22;1383;48.362;10.908;2023-04-28T11:57:20;15.30;95.60
2751;DHT22;1383;48.362;10.908;2023-04-28T11:59:47;15.30;94.40
2751;DHT22;1383;48.362;10.908;2023-04-28T12:02:22;15.40;93.90
2751;DHT22;1383;48.362;10.908;2023-04-28T12:04:49;15.40;93.00
2751;DHT22;1383;48.362;10.908;2023-04-28T12:07:18;15.60;93.10
2751;DHT22;1383;48.362;10.908;2023-04-28T12:12:32;15.70;91.10
2751;DHT22;1383;48.362;10.908;2023-04-28T12:15:04;15.90;91.30
2751;DHT22;1383;48.362;10.908;2023-04-28T12:17:39;15.90;90.90
2751;DHT22;1383;48.362;10.908;2023-04-28T12:20:08;15.90;90.70
2751;DHT22;1383;48.362;10.908;2023-04-28T12:22:45;16.10;91.00
2751;DHT22;1383;48.362;10.908;2023-04-28T12:25:18;16.20;89.00
2751;DHT22;1383;48.362;10.908;2023-04-28T12:28:02;16.30;89.30
2751;DHT22;1383;48.362;10.908;2023-04-28T12:30:33;16.40;85.00
2751;DHT22;1383;48.362;10.908;2023-04-28T12:33:00;16.50;84.20
2751;DHT22;1383;48.362;10.908;2023-04-28T12:35:28;16.50;84.20
2751;DHT22;1383;48.362;10.908;2023-04-28T12:37:55;16.40;84.50
2751;DHT22;1383;48.362;10.908;2023-04-28T12:40:24;16.30;84.20
2751;DHT22;1383;48.362;10.908;2023-04-28T12:42:52;16.20;86.00
2751;DHT22;1383;48.362;10.908;2023-04-28T12:45:19;16.00;88.40
2751;DHT22;1383;48.362;10.908;2023-04-28T12:47:46;15.70;90.30
2751;DHT22;1383;48.362;10.908;2023-04-28T12:50:13;15.60;91.40
2751;DHT22;1383;48.362;10.908;2023-04-28T12:52:40;15.40;92.30
2751;DHT22;1383;48.362;10.908;2023-04-28T12:55:07;15.40;93.10
2751;DHT22;1383;48.362;10.908;2023-04-28T12:57:34;15.30;93.10
2751;DHT22;1383;48.362;10.908;2023-04-28T13:00:06;15.20;92.10
2751;DHT22;1383;48.362;10.908;2023-04-28T13:02:33;15.20;92.70
2751;DHT22;1383;48.362;10.908;2023-04-28T13:05:01;15.20;93.10
2751;DHT22;1383;48.362;10.908;2023-04-28T13:07:28;15.20;93.40
2751;DHT22;1383;48.362;10.908;2023-04-28T13:09:56;15.30;93.50
2751;DHT22;1383;48.362;10.908;2023-04-28T13:12:24;15.50;94.00
2751;DHT22;1383;48.362;10.908;2023-04-28T13:14:50;15.70;91.70
2751;DHT22;1383;48.362;10.908;2023-04-28T13:17:17;15.80;90.90
2751;DHT22;1383;48.362;10.908;2023-04-28T13:19:44;15.90;90.50
2751;DHT22;1383;48.362;10.908;2023-04-28T13:22:12;15.90;89.60
2751;DHT22;1383;48.362;10.908;2023-04-28T13:24:38;15.90;89.00
2751;DHT22;1383;48.362;10.908;2023-04-28T13:27:05;16.10;88.10
2751;DHT22;1383;48.362;10.908;2023-04-28T13:29:36;16.10;85.00
2751;DHT22;1383;48.362;10.908;2023-04-28T13:32:03;16.00;83.70
2751;DHT22;1383;48.362;10.908;2023-04-28T13:34:31;16.00;84.50
2751;DHT22;1383;48.362;10.908;2023-04-28T13:36:58;16.00;84.90
2751;DHT22;1383;48.362;10.908;2023-04-28T13:39:25;16.10;84.30
2751;DHT22;1383;48.362;10.908;2023-04-28T13:41:52;16.10;84.20
2751;DHT22;1383;48.362;10.908;2023-04-28T13:44:19;16.10;83.30
2751;DHT22;1383;48.362;10.908;2023-04-28T13:46:46;16.20;83.50
2751;DHT22;1383;48.362;10.908;2023-04-28T13:49:14;16.20;81.40
2751;DHT22;1383;48.362;10.908;2023-04-28T13:51:41;16.20;82.00
2751;DHT22;1383;48.362;10.908;2023-04-28T13:54:08;16.30;83.50
2751;DHT22;1383;48.362;10.908;2023-04-28T13:56:36;16.40;81.20
2751;DHT22;1383;48.362;10.908;2023-04-28T13:59:04;16.40;80.30
2751;DHT22;1383;48.362;10.908;2023-04-28T14:01:30;16.40;80.10
2751;DHT22;1383;48.362;10.908;2023-04-28T14:03:57;16.40;80.30
2751;DHT22;1383;48.362;10.908;2023-04-28T14:06:26;16.50;78.90
2751;DHT22;1383;48.362;10.908;2023-04-28T14:08:52;16.50;78.90
2751;DHT22;1383;48.362;10.908;2023-04-28T14:11:19;16.60;77.30
2751;DHT22;1383;48.362;10.908;2023-04-28T14:13:46;16.60;78.00
2751;DHT22;1383;48.362;10.908;2023-04-28T14:16:13;16.60;79.90
2751;DHT22;1383;48.362;10.908;2023-04-28T14:18:40;16.50;77.60
2751;DHT22;1383;48.362;10.908;2023-04-28T14:21:07;16.40;77.30
2751;DHT22;1383;48.362;10.908;2023-04-28T14:23:34;16.40;78.40
2751;DHT22;1383;48.362;10.908;2023-04-28T14:26:01;16.30;77.40
2751;DHT22;1383;48.362;10.908;2023-04-28T14:28:28;16.20;78.80
2751;DHT22;1383;48.362;10.908;2023-04-28T14:30:55;16.30;80.00
2751;DHT22;1383;48.362;10.908;2023-04-28T14:33:22;16.30;79.90
2751;DHT22;1383;48.362;10.908;2023-04-28T14:35:49;16.40;80.40
2751;DHT22;1383;48.362;10.908;2023-04-28T14:38:16;16.40;80.20
2751;DHT22;1383;48.362;10.908;2023-04-28T14:40:42;16.30;79.60
2751;DHT22;1383;48.362;10.908;2023-04-28T14:43:09;16.30;80.30
2751;DHT22;1383;48.362;10.908;2023-04-28T14:45:36;16.30;80.70
2751;DHT22;1383;48.362;10.908;2023-04-28T14:48:03;16.30;80.60
2751;DHT22;1383;48.362;10.908;2023-04-28T14:50:32;16.20;81.50
2751;DHT22;1383;48.362;10.908;2023-04-28T14:52:59;16.30;81.90
2751;DHT22;1383;48.362;10.908;2023-04-28T14:55:31;16.30;82.30
2751;DHT22;1383;48.362;10.908;2023-04-28T14:57:58;16.30;83.80
2751;DHT22;1383;48.362;10.908;2023-04-28T15:00:25;16.10;84.80
2751;DHT22;1383;48.362;10.908;2023-04-28T15:02:52;16.10;87.10
2751;DHT22;1383;48.362;10.908;2023-04-28T15:05:19;16.00;89.80
2751;DHT22;1383;48.362;10.908;2023-04-28T15:07:46;15.90;90.80
2751;DHT22;1383;48.362;10.908;2023-04-28T15:10:13;15.90;91.50
2751;DHT22;1383;48.362;10.908;2023-04-28T15:12:40;15.80;92.50
2751;DHT22;1383;48.362;10.908;2023-04-28T15:15:08;15.50;93.80
2751;DHT22;1383;48.362;10.908;2023-04-28T15:17:35;15.40;95.30
2751;DHT22;1383;48.362;10.908;2023-04-28T15:20:03;15.30;96.30
2751;DHT22;1383;48.362;10.908;2023-04-28T15:22:30;15.20;97.00
2751;DHT22;1383;48.362;10.908;2023-04-28T15:24:57;15.20;98.00
2751;DHT22;1383;48.362;10.908;2023-04-28T15:27:24;15.20;98.70
2751;DHT22;1383;48.362;10.908;2023-04-28T15:29:50;15.20;98.90
2751;DHT22;1383;48.362;10.908;2023-04-28T15:32:17;15.10;98.50
2751;DHT22;1383;48.362;10.908;2023-04-28T15:34:44;15.20;98.90
2751;DHT22;1383;48.362;10.908;2023-04-28T15:40:04;15.10;98.40
2751;DHT22;1383;48.362;10.908;2023-04-28T15:42:31;15.00;98.70
2751;DHT22;1383;48.362;10.908;2023-04-28T15:44:58;14.80;99.50
2751;DHT22;1383;48.362;10.908;2023-04-28T15:47:25;14.80;99.90
2751;DHT22;1383;48.362;10.908;2023-04-28T15:49:52;14.80;99.90
2751;DHT22;1383;48.362;10.908;2023-04-28T15:52:19;14.80;99.90
2751;DHT22;1383;48.362;10.908;2023-04-28T15:54:45;14.80;99.90
2751;DHT22;1383;48.362;10.908;2023-04-28T15:57:12;14.90;99.90
2751;DHT22;1383;48.362;10.908;2023-04-28T15:59:39;14.90;99.90
2751;DHT22;1383;48.362;10.908;2023-04-28T16:02:06;14.80;99.90
2751;DHT22;1383;48.362;10.908;2023-04-28T16:04:33;14.80;99.90
2751;DHT22;1383;48.362;10.908;2023-04-28T16:07:00;14.70;99.90
2751;DHT22;1383;48.362;10.908;2023-04-28T16:09:28;14.70;99.90
2751;DHT22;1383;48.362;10.908;2023-04-28T16:11:55;14.70;99.90
2751;DHT22;1383;48.362;10.908;2023-04-28T16:14:25;14.70;99.90
2751;DHT22;1383;48.362;10.908;2023-04-28T16:16:52;14.60;99.90
2751;DHT22;1383;48.362;10.908;2023-04-28T16:19:20;14.50;99.90
2751;DHT22;1383;48.362;10.908;2023-04-28T16:21:47;14.40;99.90